sensor_id;sensor_type;location;lat;lon;timestamp;P1;durP1;ratioP1;P2;durP2;ratioP2
944;SDS011;459;48.676;9.034;2023-03-01T00:00:51;22.00;;;14.73;;
944;SDS011;459;48.676;9.034;2023-03-01T00:03:17;20.13;;;14.03;;
944;SDS011;459;48.676;9.034;2023-03-01T00:05:45;19.80;;;15.30;;
944;SDS011;459;48.676;9.034;2023-03-01T00:08:11;19.40;;;14.53;;
944;SDS011;459;48.676;9.034;2023-03-01T00:10:36;20.63;;;14.20;;
944;SDS011;459;48.676;9.034;2023-03-01T00:13:01;19.93;;;13.00;;
944;SDS011;459;48.676;9.034;2023-03-01T00:15:27;18.20;;;12.57;;
944;SDS011;459;48.676;9.034;2023-03-01T00:17:52;16.60;;;13.37;;
944;SDS011;459;48.676;9.034;2023-03-01T00:20:17;17.13;;;13.83;;
944;SDS011;459;48.676;9.034;2023-03-01T00:22:42;20.77;;;13.60;;
944;SDS011;459;48.676;9.034;2023-03-01T00:25:08;18.50;;;14.03;;
944;SDS011;459;48.676;9.034;2023-03-01T00:27:33;19.90;;;16.13;;
944;SDS011;459;48.676;9.034;2023-03-01T00:29:58;15.77;;;12.70;;
944;SDS011;459;48.676;9.034;2023-03-01T00:32:23;18.57;;;12.70;;
944;SDS011;459;48.676;9.034;2023-03-01T00:34:49;19.63;;;12.70;;
944;SDS011;459;48.676;9.034;2023-03-01T00:37:22;17.43;;;14.27;;
944;SDS011;459;48.676;9.034;2023-03-01T00:39:48;17.20;;;14.00;;
944;SDS011;459;48.676;9.034;2023-03-01T00:42:13;18.47;;;14.03;;
944;SDS011;459;48.676;9.034;2023-03-01T00:44:38;17.70;;;13.87;;
944;SDS011;459;48.676;9.034;2023-03-01T00:47:03;21.17;;;15.10;;
944;SDS011;459;48.676;9.034;2023-03-01T00:49:29;18.93;;;14.47;;
944;SDS011;459;48.676;9.034;2023-03-01T00:51:54;20.70;;;14.63;;
944;SDS011;459;48.676;9.034;2023-03-01T00:54:19;22.20;;;13.00;;
944;SDS011;459;48.676;9.034;2023-03-01T00:56:44;16.80;;;12.80;;
944;SDS011;459;48.676;9.034;2023-03-01T00:59:09;16.60;;;12.40;;
944;SDS011;459;48.676;9.034;2023-03-01T01:01:35;17.40;;;12.83;;
944;SDS011;459;48.676;9.034;2023-03-01T01:04:10;16.50;;;13.70;;
944;SDS011;459;48.676;9.034;2023-03-01T01:06:36;18.37;;;12.97;;
944;SDS011;459;48.676;9.034;2023-03-01T01:09:03;18.17;;;15.13;;
944;SDS011;459;48.676;9.034;2023-03-01T01:11:29;17.90;;;13.47;;
944;SDS011;459;48.676;9.034;2023-03-01T01:13:54;15.33;;;13.30;;
944;SDS011;459;48.676;9.034;2023-03-01T01:16:20;15.03;;;13.00;;
944;SDS011;459;48.676;9.034;2023-03-01T01:18:46;18.13;;;13.70;;
944;SDS011;459;48.676;9.034;2023-03-01T01:21:12;21.70;;;14.50;;
944;SDS011;459;48.676;9.034;2023-03-01T01:23:38;16.20;;;12.60;;
944;SDS011;459;48.676;9.034;2023-03-01T01:26:08;15.90;;;12.70;;
944;SDS011;459;48.676;9.034;2023-03-01T01:28:33;15.60;;;12.50;;
944;SDS011;459;48.676;9.034;2023-03-01T01:30:58;18.27;;;13.60;;
944;SDS011;459;48.676;9.034;2023-03-01T01:33:24;20.07;;;13.60;;
944;SDS011;459;48.676;9.034;2023-03-01T01:35:49;19.80;;;15.50;;
944;SDS011;459;48.676;9.034;2023-03-01T01:38:14;19.13;;;14.73;;
944;SDS011;459;48.676;9.034;2023-03-01T01:40:43;21.00;;;14.13;;
944;SDS011;459;48.676;9.034;2023-03-01T01:43:19;16.10;;;12.97;;
944;SDS011;459;48.676;9.034;2023-03-01T01:45:44;19.87;;;15.20;;
944;SDS011;459;48.676;9.034;2023-03-01T01:48:10;19.77;;;14.40;;
944;SDS011;459;48.676;9.034;2023-03-01T01:50:38;16.57;;;14.27;;
944;SDS011;459;48.676;9.034;2023-03-01T01:53:09;19.63;;;15.17;;
944;SDS011;459;48.676;9.034;2023-03-01T01:55:36;22.40;;;15.50;;
944;SDS011;459;48.676;9.034;2023-03-01T01:58:02;19.07;;;15.03;;
944;SDS011;459;48.676;9.034;2023-03-01T02:00:30;18.93;;;15.63;;
944;SDS011;459;48.676;9.034;2023-03-01T02:02:56;19.70;;;13.20;;
944;SDS011;459;48.676;9.034;2023-03-01T02:07:47;19.60;;;16.27;;
944;SDS011;459;48.676;9.034;2023-03-01T02:10:13;18.57;;;14.40;;
944;SDS011;459;48.676;9.034;2023-03-01T02:12:38;17.63;;;15.67;;
944;SDS011;459;48.676;9.034;2023-03-01T02:15:04;20.13;;;14.73;;
944;SDS011;459;48.676;9.034;2023-03-01T02:17:30;18.23;;;14.50;;
944;SDS011;459;48.676;9.034;2023-03-01T02:20:12;19.80;;;14.50;;
944;SDS011;459;48.676;9.034;2023-03-01T02:22:39;18.47;;;14.77;;
944;SDS011;459;48.676;9.034;2023-03-01T02:30:22;16.50;;;14.80;;
944;SDS011;459;48.676;9.034;2023-03-01T02:32:47;22.90;;;15.60;;
944;SDS011;459;48.676;9.034;2023-03-01T02:35:14;20.80;;;16.30;;
944;SDS011;459;48.676;9.034;2023-03-01T02:37:41;21.83;;;16.57;;
944;SDS011;459;48.676;9.034;2023-03-01T02:40:08;22.00;;;14.73;;
944;SDS011;459;48.676;9.034;2023-03-01T02:42:36;18.07;;;16.10;;
944;SDS011;459;48.676;9.034;2023-03-01T02:45:03;22.30;;;15.93;;
944;SDS011;459;48.676;9.034;2023-03-01T02:47:28;20.90;;;16.43;;
944;SDS011;459;48.676;9.034;2023-03-01T02:49:54;16.57;;;14.30;;
944;SDS011;459;48.676;9.034;2023-03-01T02:55:05;20.80;;;15.13;;
944;SDS011;459;48.676;9.034;2023-03-01T02:57:31;21.30;;;15.57;;
944;SDS011;459;48.676;9.034;2023-03-01T02:59:59;20.70;;;15.57;;
944;SDS011;459;48.676;9.034;2023-03-01T03:02:25;23.40;;;15.20;;
944;SDS011;459;48.676;9.034;2023-03-01T03:05:01;22.23;;;15.50;;
944;SDS011;459;48.676;9.034;2023-03-01T03:07:27;19.57;;;15.50;;
944;SDS011;459;48.676;9.034;2023-03-01T03:09:52;25.43;;;15.60;;
944;SDS011;459;48.676;9.034;2023-03-01T03:12:17;17.37;;;14.60;;
944;SDS011;459;48.676;9.034;2023-03-01T03:14:42;21.70;;;15.43;;
944;SDS011;459;48.676;9.034;2023-03-01T03:17:07;18.10;;;14.70;;
944;SDS011;459;48.676;9.034;2023-03-01T03:19:32;23.73;;;15.23;;
944;SDS011;459;48.676;9.034;2023-03-01T03:21:58;19.97;;;15.90;;
944;SDS011;459;48.676;9.034;2023-03-01T03:24:24;16.30;;;14.47;;
944;SDS011;459;48.676;9.034;2023-03-01T03:26:49;26.50;;;17.83;;
944;SDS011;459;48.676;9.034;2023-03-01T03:29:14;18.07;;;14.33;;
944;SDS011;459;48.676;9.034;2023-03-01T03:31:39;17.93;;;15.90;;
944;SDS011;459;48.676;9.034;2023-03-01T03:34:05;21.40;;;15.90;;
944;SDS011;459;48.676;9.034;2023-03-01T03:36:30;20.07;;;15.50;;
944;SDS011;459;48.676;9.034;2023-03-01T03:38:55;20.67;;;15.33;;
944;SDS011;459;48.676;9.034;2023-03-01T03:41:20;19.10;;;15.47;;
944;SDS011;459;48.676;9.034;2023-03-01T03:43:45;23.10;;;16.13;;
944;SDS011;459;48.676;9.034;2023-03-01T03:46:11;21.37;;;16.43;;
944;SDS011;459;48.676;9.034;2023-03-01T03:48:40;21.60;;;16.30;;
944;SDS011;459;48.676;9.034;2023-03-01T03:51:05;22.00;;;16.23;;
944;SDS011;459;48.676;9.034;2023-03-01T03:53:31;24.47;;;15.90;;
944;SDS011;459;48.676;9.034;2023-03-01T03:55:56;17.70;;;15.30;;
944;SDS011;459;48.676;9.034;2023-03-01T03:58:23;21.43;;;15.47;;
944;SDS011;459;48.676;9.034;2023-03-01T04:00:49;21.23;;;15.37;;
944;SDS011;459;48.676;9.034;2023-03-01T04:03:15;24.80;;;17.20;;
944;SDS011;459;48.676;9.034;2023-03-01T04:05:41;19.80;;;15.10;;
944;SDS011;459;48.676;9.034;2023-03-01T04:08:07;25.83;;;17.37;;
944;SDS011;459;48.676;9.034;2023-03-01T04:10:34;22.47;;;16.30;;
944;SDS011;459;48.676;9.034;2023-03-01T04:13:00;24.50;;;16.10;;
944;SDS011;459;48.676;9.034;2023-03-01T04:15:26;24.30;;;17.60;;
944;SDS011;459;48.676;9.034;2023-03-01T04:17:52;24.87;;;22.30;;
944;SDS011;459;48.676;9.034;2023-03-01T04:20:18;22.10;;;17.83;;
944;SDS011;459;48.676;9.034;2023-03-01T04:22:49;23.30;;;17.00;;
944;SDS011;459;48.676;9.034;2023-03-01T04:25:15;21.83;;;17.57;;
944;SDS011;459;48.676;9.034;2023-03-01T04:27:40;25.73;;;16.27;;
944;SDS011;459;48.676;9.034;2023-03-01T04:30:06;23.37;;;16.80;;
944;SDS011;459;48.676;9.034;2023-03-01T04:32:31;26.27;;;17.60;;
944;SDS011;459;48.676;9.034;2023-03-01T04:34:56;24.17;;;17.47;;
944;SDS011;459;48.676;9.034;2023-03-01T04:37:22;22.70;;;16.67;;
944;SDS011;459;48.676;9.034;2023-03-01T04:39:47;23.03;;;16.10;;
944;SDS011;459;48.676;9.034;2023-03-01T04:42:12;21.87;;;17.53;;
944;SDS011;459;48.676;9.034;2023-03-01T04:44:37;21.23;;;18.07;;
944;SDS011;459;48.676;9.034;2023-03-01T04:47:03;26.33;;;17.57;;
944;SDS011;459;48.676;9.034;2023-03-01T04:49:28;23.43;;;18.10;;
944;SDS011;459;48.676;9.034;2023-03-01T04:51:54;22.20;;;17.00;;
944;SDS011;459;48.676;9.034;2023-03-01T04:54:19;21.37;;;16.10;;
944;SDS011;459;48.676;9.034;2023-03-01T04:56:45;21.67;;;17.07;;
944;SDS011;459;48.676;9.034;2023-03-01T04:59:10;19.57;;;16.00;;
944;SDS011;459;48.676;9.034;2023-03-01T05:01:37;21.67;;;17.00;;
944;SDS011;459;48.676;9.034;2023-03-01T05:04:02;21.70;;;16.33;;
944;SDS011;459;48.676;9.034;2023-03-01T05:06:30;23.27;;;17.17;;
944;SDS011;459;48.676;9.034;2023-03-01T05:08:55;26.47;;;18.30;;
944;SDS011;459;48.676;9.034;2023-03-01T05:11:20;26.90;;;23.17;;
944;SDS011;459;48.676;9.034;2023-03-01T05:13:45;24.27;;;18.20;;
944;SDS011;459;48.676;9.034;2023-03-01T05:16:11;27.13;;;18.93;;
944;SDS011;459;48.676;9.034;2023-03-01T05:18:36;24.80;;;18.00;;
944;SDS011;459;48.676;9.034;2023-03-01T05:21:03;24.00;;;18.47;;
944;SDS011;459;48.676;9.034;2023-03-01T05:23:29;28.47;;;18.63;;
944;SDS011;459;48.676;9.034;2023-03-01T05:25:56;24.93;;;17.97;;
944;SDS011;459;48.676;9.034;2023-03-01T05:28:22;24.23;;;18.47;;
944;SDS011;459;48.676;9.034;2023-03-01T05:30:47;29.17;;;20.17;;
944;SDS011;459;48.676;9.034;2023-03-01T05:33:12;29.37;;;20.20;;
944;SDS011;459;48.676;9.034;2023-03-01T05:35:41;26.23;;;19.43;;
944;SDS011;459;48.676;9.034;2023-03-01T05:38:07;23.30;;;18.33;;
944;SDS011;459;48.676;9.034;2023-03-01T05:40:33;26.97;;;18.40;;
944;SDS011;459;48.676;9.034;2023-03-01T05:42:58;28.77;;;18.60;;
944;SDS011;459;48.676;9.034;2023-03-01T05:45:24;26.63;;;17.97;;
944;SDS011;459;48.676;9.034;2023-03-01T05:47:50;23.13;;;16.80;;
944;SDS011;459;48.676;9.034;2023-03-01T05:52:44;25.17;;;17.40;;
944;SDS011;459;48.676;9.034;2023-03-01T05:55:09;26.20;;;19.10;;
944;SDS011;459;48.676;9.034;2023-03-01T05:57:34;27.23;;;18.80;;
944;SDS011;459;48.676;9.034;2023-03-01T06:00:00;26.30;;;19.00;;
944;SDS011;459;48.676;9.034;2023-03-01T06:02:25;22.30;;;17.43;;
944;SDS011;459;48.676;9.034;2023-03-01T06:04:50;24.37;;;17.60;;
944;SDS011;459;48.676;9.034;2023-03-01T06:07:15;27.57;;;18.90;;
944;SDS011;459;48.676;9.034;2023-03-01T06:09:40;26.93;;;19.57;;
944;SDS011;459;48.676;9.034;2023-03-01T06:12:05;27.70;;;19.57;;
944;SDS011;459;48.676;9.034;2023-03-01T06:14:31;25.70;;;18.87;;
944;SDS011;459;48.676;9.034;2023-03-01T06:16:57;23.37;;;17.83;;
944;SDS011;459;48.676;9.034;2023-03-01T06:19:23;24.70;;;18.00;;
944;SDS011;459;48.676;9.034;2023-03-01T06:21:48;25.83;;;17.80;;
944;SDS011;459;48.676;9.034;2023-03-01T06:24:13;25.60;;;17.67;;
944;SDS011;459;48.676;9.034;2023-03-01T06:26:38;28.00;;;18.77;;
944;SDS011;459;48.676;9.034;2023-03-01T06:29:03;25.17;;;19.33;;
944;SDS011;459;48.676;9.034;2023-03-01T06:31:29;22.23;;;18.00;;
944;SDS011;459;48.676;9.034;2023-03-01T06:33:54;23.50;;;17.60;;
944;SDS011;459;48.676;9.034;2023-03-01T06:36:19;30.83;;;18.30;;
944;SDS011;459;48.676;9.034;2023-03-01T06:38:46;27.73;;;18.50;;
944;SDS011;459;48.676;9.034;2023-03-01T06:41:11;21.80;;;17.67;;
944;SDS011;459;48.676;9.034;2023-03-01T06:43:36;26.40;;;19.43;;
944;SDS011;459;48.676;9.034;2023-03-01T06:46:05;23.67;;;17.80;;
944;SDS011;459;48.676;9.034;2023-03-01T06:48:32;26.37;;;17.57;;
944;SDS011;459;48.676;9.034;2023-03-01T06:51:00;24.57;;;19.10;;
944;SDS011;459;48.676;9.034;2023-03-01T06:53:26;21.97;;;16.80;;
944;SDS011;459;48.676;9.034;2023-03-01T06:55:55;24.10;;;16.23;;
944;SDS011;459;48.676;9.034;2023-03-01T06:58:20;23.77;;;17.40;;
944;SDS011;459;48.676;9.034;2023-03-01T07:00:45;25.87;;;19.03;;
944;SDS011;459;48.676;9.034;2023-03-01T07:03:10;22.93;;;16.83;;
944;SDS011;459;48.676;9.034;2023-03-01T07:05:36;28.77;;;20.20;;
944;SDS011;459;48.676;9.034;2023-03-01T07:08:01;25.73;;;18.00;;
944;SDS011;459;48.676;9.034;2023-03-01T07:10:26;23.27;;;18.23;;
944;SDS011;459;48.676;9.034;2023-03-01T07:12:55;27.53;;;18.30;;
944;SDS011;459;48.676;9.034;2023-03-01T07:15:20;23.60;;;18.33;;
944;SDS011;459;48.676;9.034;2023-03-01T07:17:46;23.00;;;18.47;;
944;SDS011;459;48.676;9.034;2023-03-01T07:20:12;22.17;;;17.50;;
944;SDS011;459;48.676;9.034;2023-03-01T07:22:39;22.63;;;16.80;;
944;SDS011;459;48.676;9.034;2023-03-01T07:25:04;23.67;;;18.17;;
944;SDS011;459;48.676;9.034;2023-03-01T07:27:30;25.07;;;18.83;;
944;SDS011;459;48.676;9.034;2023-03-01T07:29:55;29.27;;;18.67;;
944;SDS011;459;48.676;9.034;2023-03-01T07:32:20;28.33;;;20.37;;
944;SDS011;459;48.676;9.034;2023-03-01T07:34:45;30.40;;;18.40;;
944;SDS011;459;48.676;9.034;2023-03-01T07:37:10;27.60;;;19.13;;
944;SDS011;459;48.676;9.034;2023-03-01T07:39:36;23.77;;;18.30;;
944;SDS011;459;48.676;9.034;2023-03-01T07:42:01;24.07;;;18.40;;
944;SDS011;459;48.676;9.034;2023-03-01T07:44:26;25.80;;;17.97;;
944;SDS011;459;48.676;9.034;2023-03-01T07:46:51;24.87;;;17.93;;
944;SDS011;459;48.676;9.034;2023-03-01T07:49:22;26.93;;;18.20;;
944;SDS011;459;48.676;9.034;2023-03-01T07:51:47;25.00;;;18.13;;
944;SDS011;459;48.676;9.034;2023-03-01T07:54:12;25.50;;;18.10;;
944;SDS011;459;48.676;9.034;2023-03-01T07:56:37;23.47;;;17.90;;
944;SDS011;459;48.676;9.034;2023-03-01T07:59:03;27.20;;;19.37;;
944;SDS011;459;48.676;9.034;2023-03-01T08:01:28;24.10;;;18.70;;
944;SDS011;459;48.676;9.034;2023-03-01T08:03:53;27.27;;;19.20;;
944;SDS011;459;48.676;9.034;2023-03-01T08:06:18;24.63;;;18.30;;
944;SDS011;459;48.676;9.034;2023-03-01T08:08:44;26.10;;;19.50;;
944;SDS011;459;48.676;9.034;2023-03-01T08:11:13;25.20;;;18.67;;
944;SDS011;459;48.676;9.034;2023-03-01T08:13:38;31.50;;;20.30;;
944;SDS011;459;48.676;9.034;2023-03-01T08:16:07;21.03;;;16.33;;
944;SDS011;459;48.676;9.034;2023-03-01T08:18:33;22.83;;;17.20;;
944;SDS011;459;48.676;9.034;2023-03-01T08:21:05;25.87;;;18.77;;
944;SDS011;459;48.676;9.034;2023-03-01T08:23:31;25.70;;;18.70;;
944;SDS011;459;48.676;9.034;2023-03-01T08:26:15;24.00;;;17.87;;
944;SDS011;459;48.676;9.034;2023-03-01T08:28:42;25.87;;;19.60;;
944;SDS011;459;48.676;9.034;2023-03-01T08:31:27;25.37;;;18.57;;
944;SDS011;459;48.676;9.034;2023-03-01T08:33:54;23.43;;;17.33;;
944;SDS011;459;48.676;9.034;2023-03-01T08:36:23;24.60;;;17.70;;
944;SDS011;459;48.676;9.034;2023-03-01T08:38:48;24.47;;;18.30;;
944;SDS011;459;48.676;9.034;2023-03-01T08:41:14;30.43;;;18.90;;
944;SDS011;459;48.676;9.034;2023-03-01T08:43:39;25.63;;;18.13;;
944;SDS011;459;48.676;9.034;2023-03-01T08:46:04;24.80;;;18.53;;
944;SDS011;459;48.676;9.034;2023-03-01T08:48:30;27.97;;;20.33;;
944;SDS011;459;48.676;9.034;2023-03-01T08:50:55;23.57;;;18.03;;
944;SDS011;459;48.676;9.034;2023-03-01T08:53:20;25.53;;;18.53;;
944;SDS011;459;48.676;9.034;2023-03-01T08:55:46;25.43;;;17.70;;
944;SDS011;459;48.676;9.034;2023-03-01T08:58:11;28.03;;;17.70;;
944;SDS011;459;48.676;9.034;2023-03-01T09:00:36;27.90;;;18.77;;
944;SDS011;459;48.676;9.034;2023-03-01T09:03:01;23.50;;;18.33;;
944;SDS011;459;48.676;9.034;2023-03-01T09:05:27;26.60;;;17.60;;
944;SDS011;459;48.676;9.034;2023-03-01T09:07:52;25.50;;;19.13;;
944;SDS011;459;48.676;9.034;2023-03-01T09:10:17;26.53;;;19.07;;
944;SDS011;459;48.676;9.034;2023-03-01T09:12:43;25.57;;;18.57;;
944;SDS011;459;48.676;9.034;2023-03-01T09:15:08;23.87;;;19.17;;
944;SDS011;459;48.676;9.034;2023-03-01T09:17:34;29.87;;;19.70;;
944;SDS011;459;48.676;9.034;2023-03-01T09:19:59;26.10;;;18.40;;
944;SDS011;459;48.676;9.034;2023-03-01T09:22:24;28.23;;;18.47;;
944;SDS011;459;48.676;9.034;2023-03-01T09:24:49;21.77;;;17.20;;
944;SDS011;459;48.676;9.034;2023-03-01T09:27:15;24.23;;;18.23;;
944;SDS011;459;48.676;9.034;2023-03-01T09:29:43;22.67;;;18.90;;
944;SDS011;459;48.676;9.034;2023-03-01T09:32:08;26.47;;;18.80;;
944;SDS011;459;48.676;9.034;2023-03-01T09:34:34;28.27;;;19.93;;
944;SDS011;459;48.676;9.034;2023-03-01T09:37:19;18.97;;;14.97;;
944;SDS011;459;48.676;9.034;2023-03-01T09:39:44;23.57;;;18.27;;
944;SDS011;459;48.676;9.034;2023-03-01T09:42:10;22.27;;;14.77;;
944;SDS011;459;48.676;9.034;2023-03-01T09:44:44;24.00;;;18.27;;
944;SDS011;459;48.676;9.034;2023-03-01T09:47:12;22.00;;;17.07;;
944;SDS011;459;48.676;9.034;2023-03-01T09:49:39;23.10;;;17.17;;
944;SDS011;459;48.676;9.034;2023-03-01T09:52:17;29.00;;;20.30;;
944;SDS011;459;48.676;9.034;2023-03-01T09:54:44;25.80;;;18.90;;
944;SDS011;459;48.676;9.034;2023-03-01T09:57:20;20.47;;;17.60;;
944;SDS011;459;48.676;9.034;2023-03-01T10:00:00;23.93;;;18.40;;
944;SDS011;459;48.676;9.034;2023-03-01T10:02:43;21.57;;;18.23;;
944;SDS011;459;48.676;9.034;2023-03-01T10:08:00;26.03;;;18.63;;
944;SDS011;459;48.676;9.034;2023-03-01T10:12:59;23.80;;;15.50;;
944;SDS011;459;48.676;9.034;2023-03-01T10:15:30;23.03;;;18.40;;
944;SDS011;459;48.676;9.034;2023-03-01T10:18:00;26.13;;;17.17;;
944;SDS011;459;48.676;9.034;2023-03-01T10:23:32;27.30;;;16.50;;
944;SDS011;459;48.676;9.034;2023-03-01T10:28:44;21.57;;;17.60;;
944;SDS011;459;48.676;9.034;2023-03-01T10:31:12;29.60;;;19.67;;
944;SDS011;459;48.676;9.034;2023-03-01T10:33:38;26.60;;;17.80;;
944;SDS011;459;48.676;9.034;2023-03-01T10:36:07;24.60;;;17.43;;
944;SDS011;459;48.676;9.034;2023-03-01T10:38:47;23.47;;;18.63;;
944;SDS011;459;48.676;9.034;2023-03-01T10:41:12;22.53;;;16.83;;
944;SDS011;459;48.676;9.034;2023-03-01T10:43:54;24.63;;;18.03;;
944;SDS011;459;48.676;9.034;2023-03-01T10:49:14;22.87;;;17.17;;
944;SDS011;459;48.676;9.034;2023-03-01T10:51:36;20.93;;;17.30;;
944;SDS011;459;48.676;9.034;2023-03-01T10:54:02;22.73;;;18.40;;
944;SDS011;459;48.676;9.034;2023-03-01T10:56:28;23.23;;;18.97;;
944;SDS011;459;48.676;9.034;2023-03-01T10:59:17;23.17;;;16.40;;
944;SDS011;459;48.676;9.034;2023-03-01T11:01:44;23.80;;;17.80;;
944;SDS011;459;48.676;9.034;2023-03-01T11:04:13;21.03;;;16.50;;
944;SDS011;459;48.676;9.034;2023-03-01T11:06:39;23.37;;;17.20;;
944;SDS011;459;48.676;9.034;2023-03-01T11:09:15;22.77;;;17.03;;
944;SDS011;459;48.676;9.034;2023-03-01T11:11:40;23.57;;;18.40;;
944;SDS011;459;48.676;9.034;2023-03-01T11:14:06;23.90;;;17.97;;
944;SDS011;459;48.676;9.034;2023-03-01T11:16:36;22.83;;;16.80;;
944;SDS011;459;48.676;9.034;2023-03-01T11:21:33;24.10;;;17.87;;
944;SDS011;459;48.676;9.034;2023-03-01T11:24:00;23.63;;;18.07;;
944;SDS011;459;48.676;9.034;2023-03-01T11:26:26;23.93;;;18.33;;
944;SDS011;459;48.676;9.034;2023-03-01T11:28:53;21.73;;;17.77;;
944;SDS011;459;48.676;9.034;2023-03-01T11:31:19;23.70;;;18.60;;
944;SDS011;459;48.676;9.034;2023-03-01T11:36:26;24.90;;;17.90;;
944;SDS011;459;48.676;9.034;2023-03-01T11:38:53;19.83;;;16.00;;
944;SDS011;459;48.676;9.034;2023-03-01T11:41:20;24.23;;;17.77;;
944;SDS011;459;48.676;9.034;2023-03-01T11:43:55;22.20;;;17.70;;
944;SDS011;459;48.676;9.034;2023-03-01T12:22:13;22.00;;;17.80;;
944;SDS011;459;48.676;9.034;2023-03-01T12:27:18;22.13;;;18.60;;
944;SDS011;459;48.676;9.034;2023-03-01T12:29:50;20.20;;;15.60;;
944;SDS011;459;48.676;9.034;2023-03-01T12:35:03;17.57;;;15.73;;
944;SDS011;459;48.676;9.034;2023-03-01T12:37:36;21.57;;;16.77;;
944;SDS011;459;48.676;9.034;2023-03-01T12:40:13;20.27;;;17.50;;
944;SDS011;459;48.676;9.034;2023-03-01T12:45:39;24.27;;;17.20;;
944;SDS011;459;48.676;9.034;2023-03-01T12:48:12;20.10;;;15.43;;
944;SDS011;459;48.676;9.034;2023-03-01T12:50:46;20.37;;;16.20;;
944;SDS011;459;48.676;9.034;2023-03-01T12:53:26;20.37;;;17.80;;
944;SDS011;459;48.676;9.034;2023-03-01T12:55:53;22.80;;;15.87;;
944;SDS011;459;48.676;9.034;2023-03-01T13:01:05;19.27;;;15.80;;
944;SDS011;459;48.676;9.034;2023-03-01T13:03:40;21.67;;;16.20;;
944;SDS011;459;48.676;9.034;2023-03-01T13:06:21;20.60;;;15.63;;
944;SDS011;459;48.676;9.034;2023-03-01T13:09:03;19.50;;;16.63;;
944;SDS011;459;48.676;9.034;2023-03-01T13:11:29;19.23;;;16.07;;
944;SDS011;459;48.676;9.034;2023-03-01T13:14:33;15.73;;;14.10;;
944;SDS011;459;48.676;9.034;2023-03-01T13:16:41;19.07;;;15.70;;
944;SDS011;459;48.676;9.034;2023-03-01T13:19:14;19.60;;;16.17;;
944;SDS011;459;48.676;9.034;2023-03-01T13:21:41;19.87;;;15.20;;
944;SDS011;459;48.676;9.034;2023-03-01T13:27:24;18.47;;;15.30;;
944;SDS011;459;48.676;9.034;2023-03-01T13:32:29;20.40;;;14.70;;
944;SDS011;459;48.676;9.034;2023-03-01T13:35:03;16.17;;;14.20;;
944;SDS011;459;48.676;9.034;2023-03-01T13:37:45;18.07;;;14.20;;
944;SDS011;459;48.676;9.034;2023-03-01T13:42:50;16.70;;;15.03;;
944;SDS011;459;48.676;9.034;2023-03-01T13:45:16;16.27;;;13.53;;
944;SDS011;459;48.676;9.034;2023-03-01T13:47:42;16.80;;;14.73;;
944;SDS011;459;48.676;9.034;2023-03-01T13:50:16;17.90;;;14.43;;
944;SDS011;459;48.676;9.034;2023-03-01T13:52:43;16.83;;;15.10;;
944;SDS011;459;48.676;9.034;2023-03-01T13:57:48;15.33;;;13.77;;
944;SDS011;459;48.676;9.034;2023-03-01T14:00:29;16.57;;;13.43;;
944;SDS011;459;48.676;9.034;2023-03-01T14:05:29;16.20;;;14.00;;
944;SDS011;459;48.676;9.034;2023-03-01T14:07:55;18.10;;;14.40;;
944;SDS011;459;48.676;9.034;2023-03-01T14:10:20;13.70;;;12.30;;
944;SDS011;459;48.676;9.034;2023-03-01T14:13:00;14.70;;;13.07;;
944;SDS011;459;48.676;9.034;2023-03-01T14:15:36;16.87;;;14.67;;
944;SDS011;459;48.676;9.034;2023-03-01T14:20:32;17.80;;;15.80;;
944;SDS011;459;48.676;9.034;2023-03-01T14:23:01;15.90;;;13.60;;
944;SDS011;459;48.676;9.034;2023-03-01T14:25:28;16.57;;;14.80;;
944;SDS011;459;48.676;9.034;2023-03-01T14:27:56;15.23;;;13.73;;
944;SDS011;459;48.676;9.034;2023-03-01T14:30:26;16.90;;;14.97;;
944;SDS011;459;48.676;9.034;2023-03-01T14:32:53;15.70;;;14.10;;
944;SDS011;459;48.676;9.034;2023-03-01T14:35:23;16.90;;;14.93;;
944;SDS011;459;48.676;9.034;2023-03-01T14:37:49;16.63;;;14.87;;
944;SDS011;459;48.676;9.034;2023-03-01T14:40:26;18.87;;;15.67;;
944;SDS011;459;48.676;9.034;2023-03-01T14:42:56;18.90;;;16.90;;
944;SDS011;459;48.676;9.034;2023-03-01T14:45:24;18.37;;;16.47;;
944;SDS011;459;48.676;9.034;2023-03-01T14:47:50;17.97;;;15.93;;
944;SDS011;459;48.676;9.034;2023-03-01T14:50:32;19.93;;;17.87;;
944;SDS011;459;48.676;9.034;2023-03-01T14:52:59;18.10;;;16.20;;
944;SDS011;459;48.676;9.034;2023-03-01T14:55:30;18.90;;;16.47;;
944;SDS011;459;48.676;9.034;2023-03-01T14:57:57;20.73;;;16.70;;
944;SDS011;459;48.676;9.034;2023-03-01T15:00:24;18.73;;;16.20;;
944;SDS011;459;48.676;9.034;2023-03-01T15:02:51;18.97;;;16.87;;
944;SDS011;459;48.676;9.034;2023-03-01T15:05:18;22.20;;;16.63;;
944;SDS011;459;48.676;9.034;2023-03-01T15:07:47;20.53;;;17.33;;
944;SDS011;459;48.676;9.034;2023-03-01T15:10:56;21.60;;;17.07;;
944;SDS011;459;48.676;9.034;2023-03-01T15:13:19;20.10;;;17.77;;
944;SDS011;459;48.676;9.034;2023-03-01T15:15:46;23.17;;;17.13;;
944;SDS011;459;48.676;9.034;2023-03-01T15:18:13;21.30;;;18.10;;
944;SDS011;459;48.676;9.034;2023-03-01T15:20:40;22.00;;;16.97;;
944;SDS011;459;48.676;9.034;2023-03-01T15:23:05;21.13;;;18.23;;
944;SDS011;459;48.676;9.034;2023-03-01T15:25:31;20.77;;;16.17;;
944;SDS011;459;48.676;9.034;2023-03-01T15:27:57;20.17;;;17.43;;
944;SDS011;459;48.676;9.034;2023-03-01T15:30:27;21.47;;;18.10;;
944;SDS011;459;48.676;9.034;2023-03-01T15:35:45;19.20;;;16.13;;
944;SDS011;459;48.676;9.034;2023-03-01T15:40:50;19.00;;;17.10;;
944;SDS011;459;48.676;9.034;2023-03-01T15:46:00;20.40;;;16.87;;
944;SDS011;459;48.676;9.034;2023-03-01T15:48:26;23.37;;;16.67;;
944;SDS011;459;48.676;9.034;2023-03-01T15:50:56;18.90;;;16.90;;
944;SDS011;459;48.676;9.034;2023-03-01T15:53:22;19.90;;;16.40;;
944;SDS011;459;48.676;9.034;2023-03-01T15:55:47;19.30;;;17.27;;
944;SDS011;459;48.676;9.034;2023-03-01T15:58:15;21.20;;;17.80;;
944;SDS011;459;48.676;9.034;2023-03-01T16:00:42;21.27;;;17.03;;
944;SDS011;459;48.676;9.034;2023-03-01T16:03:08;20.87;;;18.10;;
944;SDS011;459;48.676;9.034;2023-03-01T16:05:36;19.93;;;16.30;;
944;SDS011;459;48.676;9.034;2023-03-01T16:08:02;21.30;;;17.07;;
944;SDS011;459;48.676;9.034;2023-03-01T16:10:27;21.63;;;17.67;;
944;SDS011;459;48.676;9.034;2023-03-01T16:12:53;22.10;;;17.97;;
944;SDS011;459;48.676;9.034;2023-03-01T16:15:39;19.80;;;17.00;;
944;SDS011;459;48.676;9.034;2023-03-01T16:18:04;17.97;;;15.77;;
944;SDS011;459;48.676;9.034;2023-03-01T16:20:35;20.43;;;16.77;;
944;SDS011;459;48.676;9.034;2023-03-01T16:23:01;23.70;;;17.13;;
944;SDS011;459;48.676;9.034;2023-03-01T16:25:27;22.10;;;18.27;;
944;SDS011;459;48.676;9.034;2023-03-01T16:27:52;22.47;;;17.50;;
944;SDS011;459;48.676;9.034;2023-03-01T16:30:19;21.63;;;17.00;;
944;SDS011;459;48.676;9.034;2023-03-01T16:32:44;21.20;;;17.63;;
944;SDS011;459;48.676;9.034;2023-03-01T16:35:10;24.67;;;18.37;;
944;SDS011;459;48.676;9.034;2023-03-01T16:37:36;23.43;;;18.00;;
944;SDS011;459;48.676;9.034;2023-03-01T16:40:02;46.87;;;18.70;;
944;SDS011;459;48.676;9.034;2023-03-01T16:42:30;24.07;;;16.50;;
944;SDS011;459;48.676;9.034;2023-03-01T16:44:57;22.07;;;16.80;;
944;SDS011;459;48.676;9.034;2023-03-01T16:47:23;20.13;;;16.17;;
944;SDS011;459;48.676;9.034;2023-03-01T16:49:51;25.07;;;18.20;;
944;SDS011;459;48.676;9.034;2023-03-01T16:52:16;19.80;;;15.83;;
944;SDS011;459;48.676;9.034;2023-03-01T16:54:41;21.40;;;17.17;;
944;SDS011;459;48.676;9.034;2023-03-01T16:57:07;19.70;;;16.20;;
944;SDS011;459;48.676;9.034;2023-03-01T16:59:32;21.03;;;17.20;;